createdAt,value
2019-03-04T00:00:25.253Z,86.02
2019-03-04T00:01:25.420Z,85.73
2019-03-04T00:02:25.584Z,86.02
2019-03-04T00:03:25.750Z,86.40
2019-03-04T00:04:25.934Z,86.30
2019-03-04T00:05:26.097Z,86.69
2019-03-04T00:06:26.265Z,86.78
2019-03-04T00:07:26.451Z,86.30
2019-03-04T00:08:26.616Z,86.59
2019-03-04T00:09:26.778Z,86.78
2019-03-04T00:10:26.949Z,86.30
2019-03-04T00:11:27.172Z,85.73
2019-03-04T00:12:27.288Z,86.11
2019-03-04T00:13:27.452Z,86.02
2019-03-04T00:14:28.358Z,85.83
2019-03-04T00:15:27.772Z,86.02
2019-03-04T00:16:27.941Z,85.93
2019-03-04T00:17:28.103Z,85.93
2019-03-04T00:18:28.285Z,85.93
2019-03-04T00:19:28.448Z,85.73
2019-03-04T00:20:28.618Z,85.73
2019-03-04T00:21:28.790Z,86.02
2019-03-04T00:22:28.954Z,85.64
2019-03-04T00:23:29.133Z,85.35
2019-03-04T00:24:29.298Z,85.25
2019-03-04T00:25:29.468Z,85.54
2019-03-04T00:26:29.637Z,85.25
2019-03-04T00:27:29.812Z,85.25
2019-03-04T00:28:29.971Z,85.49
2019-03-04T00:29:30.131Z,85.49
2019-03-04T00:30:30.314Z,85.58
2019-03-04T00:31:30.484Z,85.39
2019-03-04T00:32:30.659Z,85.01
2019-03-04T00:33:30.821Z,85.11
2019-03-04T00:34:31.002Z,84.72
2019-03-04T00:35:31.167Z,84.92
2019-03-04T00:36:31.335Z,84.53
2019-03-04T00:37:31.499Z,84.69
2019-03-04T00:38:31.671Z,84.25
2019-03-04T00:39:31.845Z,84.53
2019-03-04T00:40:32.040Z,84.25
2019-03-04T00:41:32.228Z,84.53
2019-03-04T00:42:32.399Z,84.34
2019-03-04T00:43:32.568Z,84.06
2019-03-04T00:44:32.738Z,84.34
2019-03-04T00:45:32.905Z,84.63
2019-03-04T00:46:33.075Z,83.87
2019-03-04T00:47:33.276Z,84.06
2019-03-04T00:48:34.801Z,83.87
2019-03-04T00:49:35.453Z,83.48
2019-03-04T00:50:33.786Z,83.35
2019-03-04T00:51:33.957Z,83.67
2019-03-04T00:52:34.119Z,83.29
2019-03-04T00:53:34.291Z,83.11
2019-03-04T00:54:34.463Z,82.91
2019-03-04T00:55:34.619Z,83.11
2019-03-04T00:56:34.797Z,83.11
2019-03-04T00:57:34.967Z,83.20
2019-03-04T00:58:35.135Z,82.91
2019-03-04T00:59:35.313Z,82.06
2019-03-04T01:00:35.482Z,82.63
2019-03-04T01:01:35.654Z,82.91
2019-03-04T01:02:35.829Z,82.24
2019-03-04T01:03:35.999Z,82.53
2019-03-04T01:04:36.165Z,82.43
2019-03-04T01:05:36.331Z,82.53
2019-03-04T01:06:36.515Z,82.72
2019-03-04T01:07:36.687Z,82.63
2019-03-04T01:08:36.854Z,82.24
2019-03-04T01:09:37.026Z,82.82
2019-03-04T01:10:37.185Z,82.91
2019-03-04T01:11:37.359Z,82.91
2019-03-04T01:12:37.546Z,82.63
2019-03-04T01:13:37.727Z,82.53
2019-03-04T01:14:37.906Z,82.43
2019-03-04T01:15:38.076Z,82.34
2019-03-04T01:16:38.239Z,81.96
2019-03-04T01:17:38.408Z,82.20
2019-03-04T01:18:38.584Z,82.15
2019-03-04T01:19:38.749Z,82.24
2019-03-04T01:20:38.917Z,82.06
2019-03-04T01:21:39.087Z,82.20
2019-03-04T01:22:39.257Z,82.43
2019-03-04T01:23:39.426Z,82.20
2019-03-04T01:24:39.596Z,82.24
2019-03-04T01:25:39.767Z,81.67
2019-03-04T01:26:39.939Z,82.15
2019-03-04T01:27:40.104Z,82.15
2019-03-04T01:28:40.278Z,82.15
2019-03-04T01:29:40.446Z,82.15
2019-03-04T01:30:40.613Z,81.86
2019-03-04T01:31:40.791Z,82.15
2019-03-04T01:32:40.959Z,82.01
2019-03-04T01:33:41.129Z,82.06
2019-03-04T01:34:41.299Z,82.06
2019-03-04T01:35:41.462Z,82.15
2019-03-04T01:36:41.642Z,82.15
2019-03-04T01:37:41.818Z,82.34
2019-03-04T01:38:41.988Z,82.24
2019-03-04T01:39:42.158Z,82.59
2019-03-04T01:40:42.325Z,82.78
2019-03-04T01:41:42.497Z,82.34
2019-03-04T01:42:42.669Z,82.40
2019-03-04T01:43:42.836Z,82.78
2019-03-04T01:44:43.008Z,83.06
2019-03-04T01:45:43.181Z,83.06
2019-03-04T01:46:43.348Z,83.35
2019-03-04T01:47:43.517Z,83.35
2019-03-04T01:48:43.685Z,83.16
2019-03-04T01:49:43.852Z,82.97
2019-03-04T01:50:44.020Z,83.35
2019-03-04T01:51:44.186Z,82.59
2019-03-04T01:52:44.354Z,82.68
2019-03-04T01:53:44.530Z,82.49
2019-03-04T01:54:44.698Z,82.24
2019-03-04T01:55:44.872Z,82.06
2019-03-04T01:56:45.037Z,82.01
2019-03-04T01:57:45.211Z,82.34
2019-03-04T01:58:45.379Z,81.48
2019-03-04T01:59:45.545Z,81.58
2019-03-04T02:00:45.717Z,81.96
2019-03-04T02:01:45.890Z,81.67
2019-03-04T02:02:46.060Z,81.38
2019-03-04T02:03:46.242Z,81.58
2019-03-04T02:04:46.410Z,82.06
2019-03-04T02:05:46.583Z,81.38
2019-03-04T02:06:46.743Z,81.20
2019-03-04T02:07:46.910Z,81.48
2019-03-04T02:08:47.073Z,81.67
2019-03-04T02:09:47.260Z,81.29
2019-03-04T02:10:47.441Z,81.38
2019-03-04T02:11:47.601Z,80.62
2019-03-04T02:12:47.767Z,80.91
2019-03-04T02:13:47.938Z,80.91
2019-03-04T02:14:48.110Z,81.01
2019-03-04T02:15:48.297Z,80.91
2019-03-04T02:16:48.471Z,81.01
2019-03-04T02:17:48.646Z,81.38
2019-03-04T02:18:48.815Z,81.10
2019-03-04T02:19:48.984Z,81.20
2019-03-04T02:20:49.152Z,81.10
2019-03-04T02:21:49.363Z,81.38
2019-03-04T02:22:49.481Z,81.01
2019-03-04T02:23:49.653Z,81.29
2019-03-04T02:24:49.820Z,81.67
2019-03-04T02:25:49.986Z,81.58
2019-03-04T02:26:50.154Z,81.58
2019-03-04T02:27:50.318Z,81.67
2019-03-04T02:28:50.491Z,81.38
2019-03-04T02:29:50.658Z,81.38
2019-03-04T02:30:50.837Z,81.67
2019-03-04T02:31:51.005Z,82.53
2019-03-04T02:32:51.177Z,82.24
2019-03-04T02:33:51.348Z,82.06
2019-03-04T02:34:51.516Z,82.06
2019-03-04T02:35:51.677Z,82.06
2019-03-04T02:36:51.856Z,82.06
2019-03-04T02:37:52.025Z,82.30
2019-03-04T02:38:52.198Z,82.24
2019-03-04T02:39:52.370Z,82.24
2019-03-04T02:40:52.533Z,81.77
2019-03-04T02:41:52.701Z,81.48
2019-03-04T02:42:52.869Z,81.48
2019-03-04T02:43:53.036Z,81.48
2019-03-04T02:44:53.205Z,81.48
2019-03-04T02:45:53.375Z,80.96
2019-03-04T02:46:53.545Z,80.91
2019-03-04T02:47:53.714Z,81.10
2019-03-04T02:48:53.888Z,81.01
2019-03-04T02:49:54.055Z,81.01
2019-03-04T02:50:54.228Z,81.20
2019-03-04T02:51:54.398Z,80.81
2019-03-04T02:52:54.572Z,81.01
2019-03-04T02:53:54.736Z,81.01
2019-03-04T02:54:54.906Z,80.72
2019-03-04T02:55:55.076Z,80.81
2019-03-04T02:56:55.239Z,80.81
2019-03-04T02:57:55.401Z,80.91
2019-03-04T02:58:55.575Z,81.01
2019-03-04T02:59:55.733Z,80.91
2019-03-04T03:00:55.910Z,80.72
2019-03-04T03:01:56.095Z,80.81
2019-03-04T03:02:56.258Z,81.20
2019-03-04T03:03:56.425Z,80.81
2019-03-04T03:04:56.599Z,80.81
2019-03-04T03:05:56.760Z,80.81
2019-03-04T03:06:56.928Z,80.72
2019-03-04T03:07:57.102Z,81.10
2019-03-04T03:08:57.271Z,80.72
2019-03-04T03:09:57.444Z,80.91
2019-03-04T03:10:57.604Z,80.91
2019-03-04T03:11:57.773Z,81.01
2019-03-04T03:12:57.948Z,80.81
2019-03-04T03:13:58.116Z,80.81
2019-03-04T03:14:58.279Z,80.91
2019-03-04T03:15:58.449Z,80.62
2019-03-04T03:16:58.619Z,80.72
2019-03-04T03:17:58.803Z,80.81
2019-03-04T03:18:58.948Z,80.62
2019-03-04T03:19:59.118Z,80.62
2019-03-04T03:20:59.290Z,81.01
2019-03-04T03:21:59.459Z,80.81
2019-03-04T03:22:59.630Z,80.81
2019-03-04T03:23:59.792Z,81.20
2019-03-04T03:24:59.965Z,81.38
2019-03-04T03:26:00.142Z,81.38
2019-03-04T03:27:00.325Z,81.58
2019-03-04T03:28:00.486Z,81.67
2019-03-04T03:29:00.657Z,82.24
2019-03-04T03:30:00.893Z,82.06
2019-03-04T03:31:01.004Z,82.24
2019-03-04T03:32:01.162Z,82.53
2019-03-04T03:33:01.344Z,82.91
2019-03-04T03:34:01.500Z,82.91
2019-03-04T03:35:01.676Z,83.20
2019-03-04T03:36:01.837Z,83.01
2019-03-04T03:37:02.008Z,84.06
2019-03-04T03:38:02.172Z,83.67
2019-03-04T03:39:02.344Z,83.77
2019-03-04T03:40:02.514Z,83.96
2019-03-04T03:41:02.698Z,84.25
2019-03-04T03:42:02.855Z,84.34
2019-03-04T03:43:03.029Z,84.25
2019-03-04T03:44:03.210Z,83.77
2019-03-04T03:45:03.368Z,84.44
2019-03-04T03:46:03.548Z,84.16
2019-03-04T03:47:03.719Z,83.96
2019-03-04T03:48:03.890Z,84.34
2019-03-04T03:49:04.058Z,83.96
2019-03-04T03:50:04.217Z,83.48
2019-03-04T03:51:04.409Z,83.77
2019-03-04T03:52:04.558Z,83.77
2019-03-04T03:53:04.725Z,83.48
2019-03-04T03:54:04.898Z,83.48
2019-03-04T03:55:05.067Z,83.87
2019-03-04T03:56:05.235Z,84.06
2019-03-04T03:57:05.406Z,83.96
2019-03-04T03:58:05.589Z,84.16
2019-03-04T03:59:05.747Z,83.87
2019-03-04T04:00:05.910Z,84.44
2019-03-04T04:01:06.087Z,84.25
2019-03-04T04:02:06.251Z,84.44
2019-03-04T04:03:06.417Z,84.11
2019-03-04T04:04:06.588Z,84.25
2019-03-04T04:05:06.757Z,84.44
2019-03-04T04:06:06.922Z,84.16
2019-03-04T04:07:07.108Z,84.34
2019-03-04T04:08:07.263Z,84.44
2019-03-04T04:09:07.442Z,84.53
2019-03-04T04:10:07.611Z,84.82
2019-03-04T04:11:07.774Z,84.72
2019-03-04T04:12:07.961Z,84.72
2019-03-04T04:13:08.130Z,84.92
2019-03-04T04:14:08.291Z,85.01
2019-03-04T04:15:08.462Z,85.30
2019-03-04T04:16:08.627Z,85.49
2019-03-04T04:17:08.806Z,85.77
2019-03-04T04:18:08.975Z,85.97
2019-03-04T04:19:09.133Z,85.21
2019-03-04T04:20:09.314Z,85.01
2019-03-04T04:21:09.478Z,85.06
2019-03-04T04:22:09.651Z,85.11
2019-03-04T04:23:09.814Z,85.49
2019-03-04T04:24:09.995Z,85.30
2019-03-04T04:25:10.179Z,85.49
2019-03-04T04:26:10.350Z,85.49
2019-03-04T04:27:10.520Z,85.30
2019-03-04T04:28:10.691Z,84.92
2019-03-04T04:29:10.857Z,85.21
2019-03-04T04:30:11.021Z,85.49
2019-03-04T04:31:11.188Z,85.21
2019-03-04T04:32:11.366Z,85.11
2019-03-04T04:33:11.533Z,85.97
2019-03-04T04:34:11.699Z,85.39
2019-03-04T04:35:11.868Z,85.49
2019-03-04T04:36:12.041Z,85.35
2019-03-04T04:37:12.212Z,85.21
2019-03-04T04:38:12.388Z,85.58
2019-03-04T04:39:12.566Z,85.39
2019-03-04T04:40:12.733Z,85.21
2019-03-04T04:41:12.897Z,85.30
2019-03-04T04:42:13.074Z,85.58
2019-03-04T04:43:13.248Z,85.58
2019-03-04T04:44:13.417Z,85.97
2019-03-04T04:45:13.586Z,86.25
2019-03-04T04:46:13.750Z,86.30
2019-03-04T04:47:13.922Z,86.82
2019-03-04T04:48:14.092Z,87.02
2019-03-04T04:49:14.261Z,86.92
2019-03-04T04:50:14.428Z,87.49
2019-03-04T04:51:14.595Z,87.07
2019-03-04T04:52:14.770Z,87.35
2019-03-04T04:53:14.925Z,86.98
2019-03-04T04:54:15.096Z,87.11
2019-03-04T04:55:15.267Z,87.11
2019-03-04T04:56:15.427Z,87.40
2019-03-04T04:57:15.586Z,87.49
2019-03-04T04:58:15.765Z,87.97
2019-03-04T04:59:15.930Z,87.59
2019-03-04T05:00:16.100Z,87.07
2019-03-04T05:01:16.273Z,87.40
2019-03-04T05:02:16.433Z,87.40
2019-03-04T05:03:16.656Z,87.11
2019-03-04T05:04:16.932Z,86.82
2019-03-04T05:05:17.008Z,86.44
2019-03-04T05:06:17.269Z,86.63
2019-03-04T05:07:17.337Z,86.73
2019-03-04T05:08:17.521Z,86.54
2019-03-04T05:09:18.085Z,86.30
2019-03-04T05:10:17.969Z,85.93
2019-03-04T05:11:17.945Z,86.06
2019-03-04T05:12:18.221Z,85.77
2019-03-04T05:13:18.384Z,85.39
2019-03-04T05:14:18.406Z,85.39
2019-03-04T05:15:18.848Z,86.35
2019-03-04T05:16:18.690Z,85.97
2019-03-04T05:17:18.873Z,85.97
2019-03-04T05:18:19.069Z,85.97
2019-03-04T05:19:19.249Z,86.35
2019-03-04T05:20:19.433Z,86.73
2019-03-04T05:21:19.661Z,87.02
2019-03-04T05:22:19.837Z,86.44
2019-03-04T05:23:19.992Z,86.54
2019-03-04T05:24:20.329Z,86.82
2019-03-04T05:25:20.350Z,87.40
2019-03-04T05:26:20.625Z,87.30
2019-03-04T05:27:20.643Z,86.82
2019-03-04T05:28:21.022Z,86.54
2019-03-04T05:29:21.072Z,86.16
2019-03-04T05:30:21.198Z,85.97
2019-03-04T05:31:21.364Z,86.06
2019-03-04T05:32:21.545Z,85.77
2019-03-04T05:33:21.797Z,85.49
2019-03-04T05:34:21.935Z,85.39
2019-03-04T05:35:22.138Z,85.68
2019-03-04T05:36:22.299Z,85.97
2019-03-04T05:37:22.478Z,85.68
2019-03-04T05:38:22.660Z,85.01
2019-03-04T05:39:22.827Z,84.92
2019-03-04T05:40:22.995Z,84.72
2019-03-04T05:41:23.159Z,84.34
2019-03-04T05:42:24.576Z,84.82
2019-03-04T05:43:23.492Z,84.53
2019-03-04T05:44:23.662Z,84.53
2019-03-04T05:45:23.834Z,84.72
2019-03-04T05:46:23.995Z,84.53
2019-03-04T05:47:24.169Z,84.16
2019-03-04T05:48:24.353Z,84.34
2019-03-04T05:49:24.539Z,83.58
2019-03-04T05:50:24.714Z,83.58
2019-03-04T05:51:24.884Z,83.29
2019-03-04T05:52:25.047Z,83.39
2019-03-04T05:53:25.214Z,83.58
2019-03-04T05:54:25.418Z,83.67
2019-03-04T05:55:25.566Z,83.48
2019-03-04T05:56:25.730Z,83.20
2019-03-04T05:57:25.907Z,83.01
2019-03-04T05:58:26.074Z,83.01
2019-03-04T05:59:29.295Z,82.91
2019-03-04T06:00:27.380Z,82.82
2019-03-04T06:01:28.529Z,82.53
2019-03-04T06:02:27.911Z,82.53
2019-03-04T06:03:26.782Z,83.20
2019-03-04T06:04:26.960Z,82.24
2019-03-04T06:05:29.054Z,82.53
2019-03-04T06:06:29.242Z,82.53
2019-03-04T06:07:29.027Z,82.15
2019-03-04T06:08:29.793Z,82.15
2019-03-04T06:09:30.225Z,82.24
2019-03-04T06:10:30.331Z,82.24
2019-03-04T06:11:30.854Z,82.06
2019-03-04T06:12:29.291Z,82.15
2019-03-04T06:13:30.808Z,82.06
2019-03-04T06:14:30.856Z,82.15
2019-03-04T06:15:29.789Z,82.24
2019-03-04T06:16:29.596Z,81.38
2019-03-04T06:17:30.261Z,82.15
2019-03-04T06:18:29.908Z,82.24
2019-03-04T06:19:29.144Z,82.15
2019-03-04T06:20:29.349Z,82.34
2019-03-04T06:21:29.544Z,81.86
2019-03-04T06:22:29.714Z,82.15
2019-03-04T06:23:31.603Z,82.06
2019-03-04T06:24:32.726Z,82.24
2019-03-04T06:25:31.136Z,82.19
2019-03-04T06:26:33.783Z,82.34
2019-03-04T06:27:32.102Z,82.15
2019-03-04T06:28:32.638Z,81.67
2019-03-04T06:29:31.775Z,81.01
2019-03-04T06:30:32.795Z,80.91
2019-03-04T06:31:33.423Z,80.72
2019-03-04T06:32:35.016Z,80.43
2019-03-04T06:33:34.739Z,80.33
2019-03-04T06:34:34.855Z,80.33
2019-03-04T06:35:33.642Z,80.15
2019-03-04T06:36:34.087Z,80.33
2019-03-04T06:37:33.212Z,80.05
2019-03-04T06:38:33.638Z,79.86
2019-03-04T06:39:34.339Z,79.96
2019-03-04T06:40:34.284Z,79.10
2019-03-04T06:41:35.638Z,79.28
2019-03-04T06:42:33.295Z,79.67
2019-03-04T06:43:36.802Z,79.61
2019-03-04T06:44:36.507Z,79.57
2019-03-04T06:45:35.112Z,79.96
2019-03-04T06:46:35.881Z,79.80
2019-03-04T06:47:35.556Z,79.28
2019-03-04T06:48:36.523Z,79.19
2019-03-04T06:49:36.750Z,79.19
2019-03-04T06:50:33.682Z,79.28
2019-03-04T06:51:33.867Z,79.23
2019-03-04T06:52:34.036Z,79.10
2019-03-04T06:53:34.216Z,79.38
2019-03-04T06:54:34.389Z,78.43
2019-03-04T06:55:34.581Z,79.23
2019-03-04T06:56:34.825Z,78.66
2019-03-04T06:57:34.939Z,78.52
2019-03-04T06:58:35.139Z,78.47
2019-03-04T06:59:35.322Z,78.75
2019-03-04T07:00:35.573Z,78.18
2019-03-04T07:01:35.654Z,78.75
2019-03-04T07:02:35.881Z,79.23
2019-03-04T07:03:36.005Z,78.56
2019-03-04T07:04:36.210Z,78.37
2019-03-04T07:05:36.428Z,78.09
2019-03-04T07:06:36.430Z,78.47
2019-03-04T07:07:36.762Z,77.70
2019-03-04T07:08:37.088Z,77.61
2019-03-04T07:09:37.289Z,76.94
2019-03-04T07:10:37.178Z,77.23
2019-03-04T07:11:37.337Z,76.65
2019-03-04T07:12:37.482Z,76.75
2019-03-04T07:13:37.596Z,76.56
2019-03-04T07:14:37.775Z,76.75
2019-03-04T07:15:37.986Z,76.84
2019-03-04T07:16:38.013Z,76.75
2019-03-04T07:17:38.191Z,76.65
2019-03-04T07:18:38.322Z,76.75
2019-03-04T07:19:38.476Z,76.84
2019-03-04T07:20:38.628Z,77.03
2019-03-04T07:21:38.793Z,77.13
2019-03-04T07:22:38.867Z,76.84
2019-03-04T07:23:39.160Z,76.46
2019-03-04T07:24:39.326Z,76.65
2019-03-04T07:25:39.531Z,76.18
2019-03-04T07:26:39.717Z,76.56
2019-03-04T07:27:39.848Z,76.27
2019-03-04T07:28:40.194Z,76.37
2019-03-04T07:29:40.189Z,76.08
2019-03-04T07:30:40.304Z,76.65
2019-03-04T07:31:40.445Z,75.98
2019-03-04T07:32:40.963Z,75.79
2019-03-04T07:33:40.738Z,75.79
2019-03-04T07:34:40.755Z,75.98
2019-03-04T07:35:41.307Z,76.27
2019-03-04T07:36:41.000Z,76.56
2019-03-04T07:37:41.223Z,76.46
2019-03-04T07:38:41.365Z,76.65
2019-03-04T07:39:41.445Z,76.56
2019-03-04T07:40:41.498Z,76.65
2019-03-04T07:41:41.766Z,76.84
2019-03-04T07:42:41.896Z,77.13
2019-03-04T07:43:42.093Z,77.32
2019-03-04T07:44:42.209Z,77.13
2019-03-04T07:45:42.346Z,77.23
2019-03-04T07:46:42.548Z,76.94
2019-03-04T07:47:42.685Z,77.03
2019-03-04T07:48:42.819Z,76.94
2019-03-04T07:49:42.875Z,77.42
2019-03-04T07:50:43.112Z,77.23
2019-03-04T07:51:43.238Z,76.94
2019-03-04T07:52:43.377Z,77.13
2019-03-04T07:53:46.638Z,76.37
2019-03-04T07:54:43.607Z,76.37
2019-03-04T07:55:45.812Z,76.75
2019-03-04T07:56:44.675Z,76.56
2019-03-04T07:57:44.217Z,76.46
2019-03-04T07:58:45.217Z,76.18
2019-03-04T07:59:44.594Z,76.37
2019-03-04T08:00:44.784Z,76.46
2019-03-04T08:01:44.969Z,76.37
2019-03-04T08:02:46.512Z,76.65
2019-03-04T08:03:45.449Z,75.98
2019-03-04T08:04:46.351Z,75.79
2019-03-04T08:05:47.079Z,75.79
2019-03-04T08:06:46.964Z,75.79
2019-03-04T08:07:46.549Z,75.60
2019-03-04T08:08:47.853Z,75.22
2019-03-04T08:09:47.643Z,75.32
2019-03-04T08:10:47.677Z,75.42
2019-03-04T08:11:47.531Z,75.60
2019-03-04T08:12:48.017Z,74.93
2019-03-04T08:13:48.466Z,74.84
2019-03-04T08:14:47.765Z,74.93
2019-03-04T08:15:48.456Z,74.55
2019-03-04T08:16:49.026Z,74.65
2019-03-04T08:17:49.819Z,74.69
2019-03-04T08:18:48.883Z,73.63
2019-03-04T08:19:48.965Z,74.02
2019-03-04T08:20:49.080Z,73.73
2019-03-04T08:21:51.315Z,73.25
2019-03-04T08:22:49.366Z,73.35
2019-03-04T08:23:50.042Z,72.68
2019-03-04T08:24:49.668Z,72.49
2019-03-04T08:25:50.581Z,72.24
2019-03-04T08:26:50.513Z,72.97
2019-03-04T08:27:50.481Z,72.11
2019-03-04T08:28:50.834Z,72.39
2019-03-04T08:29:50.661Z,72.20
2019-03-04T08:30:50.353Z,72.30
2019-03-04T08:31:50.609Z,72.20
2019-03-04T08:32:50.971Z,71.82
2019-03-04T08:33:50.970Z,72.01
2019-03-04T08:34:51.271Z,72.58
2019-03-04T08:35:50.785Z,72.01
2019-03-04T08:36:51.090Z,71.72
2019-03-04T08:37:51.495Z,72.05
2019-03-04T08:38:51.082Z,71.44
2019-03-04T08:39:51.239Z,71.47
2019-03-04T08:40:53.111Z,71.44
2019-03-04T08:41:52.540Z,71.44
2019-03-04T08:42:53.620Z,71.63
2019-03-04T08:43:53.218Z,71.63
2019-03-04T08:44:53.500Z,71.67
2019-03-04T08:45:54.282Z,71.28
2019-03-04T08:46:53.278Z,71.38
2019-03-04T08:47:53.452Z,71.86
2019-03-04T08:48:54.103Z,70.90
2019-03-04T08:49:53.699Z,70.61
2019-03-04T08:50:54.812Z,70.90
2019-03-04T08:51:54.574Z,71.00
2019-03-04T08:52:53.586Z,70.33
2019-03-04T08:53:56.190Z,70.14
2019-03-04T08:54:53.735Z,70.04
2019-03-04T08:55:53.655Z,70.52
2019-03-04T08:57:03.275Z,69.82
2019-03-04T08:57:54.656Z,69.34
2019-03-04T08:58:55.257Z,69.18
2019-03-04T08:59:54.350Z,69.43
2019-03-04T09:00:54.288Z,69.43
2019-03-04T09:01:54.474Z,69.82
2019-03-04T09:02:54.594Z,70.67
2019-03-04T09:03:54.787Z,72.49
2019-03-04T09:04:55.368Z,72.49
2019-03-04T09:05:55.090Z,73.54
2019-03-04T09:06:55.364Z,74.65
2019-03-04T09:07:55.415Z,77.13
2019-03-04T09:08:55.596Z,79.90
2019-03-04T09:09:55.731Z,82.72
2019-03-04T09:10:56.531Z,83.11
2019-03-04T09:11:56.233Z,85.11
2019-03-04T09:12:56.646Z,85.73
2019-03-04T09:13:57.443Z,85.83
2019-03-04T09:14:56.601Z,86.69
2019-03-04T09:15:56.695Z,86.49
2019-03-04T09:16:57.921Z,87.26
2019-03-04T09:17:57.159Z,87.45
2019-03-04T09:18:57.158Z,87.16
2019-03-04T09:19:57.297Z,86.88
2019-03-04T09:20:58.614Z,86.59
2019-03-04T09:21:58.331Z,87.26
2019-03-04T09:22:57.980Z,87.64
2019-03-04T09:23:57.954Z,86.88
2019-03-04T09:24:58.923Z,86.21
2019-03-04T09:25:58.484Z,85.97
2019-03-04T09:26:58.621Z,85.50
2019-03-04T09:27:58.613Z,86.65
2019-03-04T09:28:58.667Z,85.97
2019-03-04T09:29:58.806Z,87.21
2019-03-04T09:30:58.984Z,87.79
2019-03-04T09:32:01.660Z,88.36
2019-03-04T09:32:59.383Z,87.50
2019-03-04T09:33:59.392Z,88.07
2019-03-04T09:34:59.687Z,87.74
2019-03-04T09:35:59.849Z,87.69
2019-03-04T09:36:59.913Z,88.74
2019-03-04T09:38:00.259Z,88.60
2019-03-04T09:39:00.224Z,88.31
2019-03-04T09:40:00.358Z,88.60
2019-03-04T09:41:00.725Z,87.17
2019-03-04T09:42:00.739Z,86.88
2019-03-04T09:43:00.974Z,87.23
2019-03-04T09:44:01.411Z,88.03
2019-03-04T09:45:01.394Z,87.74
2019-03-04T09:46:01.542Z,85.55
2019-03-04T09:47:01.616Z,85.51
2019-03-04T09:48:02.148Z,86.60
2019-03-04T09:49:03.114Z,86.60
2019-03-04T09:50:03.013Z,86.12
2019-03-04T09:51:02.525Z,84.98
2019-03-04T09:52:03.218Z,84.69
2019-03-04T09:53:02.957Z,84.60
2019-03-04T09:54:02.750Z,84.60
2019-03-04T09:55:02.990Z,84.31
2019-03-04T09:56:03.164Z,83.93
2019-03-04T09:57:03.470Z,83.84
2019-03-04T09:58:03.427Z,84.12
2019-03-04T09:59:03.619Z,83.55
2019-03-04T10:00:03.840Z,82.69
2019-03-04T10:01:04.058Z,82.17
2019-03-04T10:02:04.624Z,81.30
2019-03-04T10:03:04.316Z,80.64
2019-03-04T10:04:04.572Z,80.44
2019-03-04T10:05:04.767Z,80.64
2019-03-04T10:06:04.901Z,80.49
2019-03-04T10:07:04.931Z,80.49
2019-03-04T10:08:05.081Z,78.86
2019-03-04T10:09:05.363Z,77.95
2019-03-04T10:10:05.438Z,77.86
2019-03-04T10:11:05.607Z,76.67
2019-03-04T10:12:05.752Z,76.81
2019-03-04T10:13:05.912Z,76.90
2019-03-04T10:14:06.050Z,76.46
2019-03-04T10:15:08.725Z,75.45
2019-03-04T10:16:06.731Z,74.40
2019-03-04T10:17:06.450Z,73.77
2019-03-04T10:18:06.789Z,73.67
2019-03-04T10:19:06.761Z,73.52
2019-03-04T10:20:06.927Z,73.23
2019-03-04T10:21:07.682Z,73.43
2019-03-04T10:22:07.220Z,72.22
2019-03-04T10:23:07.244Z,72.31
2019-03-04T10:24:07.419Z,71.39
2019-03-04T10:25:07.530Z,68.46
2019-03-04T10:26:07.760Z,68.07
2019-03-04T10:27:08.192Z,68.62
2019-03-04T10:28:08.141Z,69.67
2019-03-04T10:29:08.456Z,69.32
2019-03-04T10:30:08.711Z,68.30
2019-03-04T10:31:08.714Z,67.44
2019-03-04T10:32:09.018Z,66.29
2019-03-04T10:33:09.037Z,65.94
2019-03-04T10:34:09.117Z,64.05
2019-03-04T10:35:09.342Z,62.81
2019-03-04T10:36:09.482Z,63.22
2019-03-04T10:37:09.617Z,62.65
2019-03-04T10:38:09.912Z,62.29
2019-03-04T10:39:10.139Z,61.65
2019-03-04T10:40:10.022Z,60.95
2019-03-04T10:41:10.813Z,58.36
2019-03-04T10:42:11.349Z,59.16
2019-03-04T10:43:10.543Z,58.29
2019-03-04T10:44:10.830Z,56.95
2019-03-04T10:45:10.936Z,55.89
2019-03-04T10:46:11.435Z,55.34
2019-03-04T10:47:11.195Z,55.34
2019-03-04T10:48:11.415Z,55.67
2019-03-04T10:49:11.957Z,58.97
2019-03-04T10:50:13.300Z,61.15
2019-03-04T10:51:14.092Z,63.10
2019-03-04T10:52:12.637Z,64.53
2019-03-04T10:53:13.095Z,65.62
2019-03-04T10:54:14.441Z,63.80
2019-03-04T10:55:12.977Z,63.45
2019-03-04T10:56:14.715Z,64.28
2019-03-04T10:57:13.503Z,63.64
2019-03-04T10:58:13.332Z,63.89
2019-03-04T10:59:13.480Z,65.11
2019-03-04T11:00:13.625Z,65.74
2019-03-04T11:01:13.727Z,67.14
2019-03-04T11:02:13.964Z,68.39
2019-03-04T11:03:14.122Z,67.94
2019-03-04T11:04:14.246Z,65.08
2019-03-04T11:05:14.390Z,63.26
2019-03-04T11:06:14.544Z,63.35
2019-03-04T11:07:14.604Z,63.32
2019-03-04T11:08:14.807Z,64.37
2019-03-04T11:09:14.999Z,64.18
2019-03-04T11:10:15.137Z,64.76
2019-03-04T11:11:15.359Z,65.88
2019-03-04T11:12:15.470Z,65.20
2019-03-04T11:13:15.644Z,63.89
2019-03-04T11:14:15.741Z,63.03
2019-03-04T11:15:15.958Z,63.00
2019-03-04T11:16:16.140Z,63.67
2019-03-04T11:17:16.434Z,62.90
2019-03-04T11:18:16.569Z,61.08
2019-03-04T11:19:16.764Z,61.63
2019-03-04T11:20:17.193Z,61.21
2019-03-04T11:21:17.150Z,60.83
2019-03-04T11:22:17.334Z,60.13
2019-03-04T11:23:18.913Z,60.61
2019-03-04T11:24:17.692Z,60.96
2019-03-04T11:25:17.831Z,59.49
2019-03-04T11:26:18.083Z,60.45
2019-03-04T11:27:18.229Z,60.45
2019-03-04T11:28:18.397Z,59.66
2019-03-04T11:29:18.417Z,59.37
2019-03-04T11:30:18.575Z,59.27
2019-03-04T11:31:18.754Z,59.56
2019-03-04T11:32:18.922Z,59.27
2019-03-04T11:33:19.131Z,58.80
2019-03-04T11:34:19.303Z,58.70
2019-03-04T11:35:19.855Z,59.08
2019-03-04T11:36:19.633Z,59.27
2019-03-04T11:37:19.803Z,59.66
2019-03-04T11:38:19.969Z,59.66
2019-03-04T11:39:20.316Z,59.08
2019-03-04T11:40:20.376Z,58.80
2019-03-04T11:41:20.545Z,57.75
2019-03-04T11:42:20.710Z,58.41
2019-03-04T11:43:20.874Z,58.32
2019-03-04T11:44:21.046Z,59.27
2019-03-04T11:45:21.212Z,59.37
2019-03-04T11:46:21.480Z,59.75
2019-03-04T11:47:21.537Z,59.66
2019-03-04T11:48:21.704Z,58.73
2019-03-04T11:49:21.874Z,58.92
2019-03-04T11:50:22.081Z,60.04
2019-03-04T11:51:22.338Z,60.90
2019-03-04T11:52:22.554Z,61.09
2019-03-04T11:53:22.712Z,61.76
2019-03-04T11:54:22.938Z,63.19
2019-03-04T11:55:23.012Z,62.97
2019-03-04T11:56:23.164Z,64.02
2019-03-04T11:57:23.271Z,63.86
2019-03-04T11:58:23.429Z,63.57
2019-03-04T11:59:23.553Z,64.53
2019-03-04T12:00:23.584Z,65.01
2019-03-04T12:01:23.908Z,64.98
2019-03-04T12:02:24.039Z,65.84
2019-03-04T12:03:24.253Z,66.70
2019-03-04T12:04:24.294Z,66.70
2019-03-04T12:05:24.549Z,65.74
2019-03-04T12:06:24.660Z,66.13
2019-03-04T12:07:24.814Z,66.22
2019-03-04T12:08:24.952Z,66.89
2019-03-04T12:09:25.098Z,65.93
2019-03-04T12:10:25.243Z,65.61
2019-03-04T12:11:25.239Z,64.85
2019-03-04T12:12:25.409Z,65.71
2019-03-04T12:13:25.595Z,66.47
2019-03-04T12:14:25.765Z,67.68
2019-03-04T12:15:25.949Z,67.97
2019-03-04T12:16:26.122Z,70.64
2019-03-04T12:17:26.310Z,71.69
2019-03-04T12:18:27.205Z,73.79
2019-03-04T12:19:28.759Z,74.37
2019-03-04T12:20:27.174Z,75.70
2019-03-04T12:21:26.970Z,75.79
2019-03-04T12:22:27.109Z,77.13
2019-03-04T12:23:27.232Z,78.56
2019-03-04T12:24:29.374Z,78.91
2019-03-04T12:25:27.451Z,80.30
2019-03-04T12:26:27.692Z,81.73
2019-03-04T12:27:27.843Z,81.63
2019-03-04T12:28:27.944Z,82.40
2019-03-04T12:29:28.128Z,82.35
2019-03-04T12:30:28.271Z,83.31
2019-03-04T12:31:28.604Z,84.45
2019-03-04T12:32:28.614Z,85.55
2019-03-04T12:33:28.767Z,86.69
2019-03-04T12:34:29.855Z,87.27
2019-03-04T12:35:30.969Z,86.69
2019-03-04T12:36:30.653Z,88.41
2019-03-04T12:37:30.544Z,88.70
2019-03-04T12:38:31.853Z,88.22
2019-03-04T12:39:31.217Z,89.26
2019-03-04T12:40:30.850Z,89.36
2019-03-04T12:41:31.117Z,89.55
2019-03-04T12:42:32.145Z,89.17
2019-03-04T12:43:31.104Z,90.03
2019-03-04T12:44:31.757Z,90.22
2019-03-04T12:45:34.587Z,89.46
2019-03-04T12:46:32.209Z,88.69
2019-03-04T12:47:32.215Z,85.15
2019-03-04T12:48:31.892Z,84.06
2019-03-04T12:49:32.013Z,84.48
2019-03-04T12:50:33.105Z,83.43
2019-03-04T12:51:33.081Z,84.96
2019-03-04T12:52:32.651Z,83.28
2019-03-04T12:53:37.330Z,81.99
2019-03-04T12:54:32.955Z,81.22